Aswan, Egypt

4:22 AM EET on October 21, 2014 (GMT +0200)
Aswan International | Change Station
CLOSE
Current Station
Airport
Location: Aswan,
Elevation: 636 ft
Nearby Weather Stations

Elev 636 ft 23.96 °N, 32.82 °E | Updated 22 minutes ago

Clear
Clear
68 °F
Feels Like 68 °F
N
7
Wind Variable Wind from NNW

Today
High -- | Low -- °F
--% Chance of Precip.
Yesterday
High -- | Low -- °F
Precip. -- in
5:48 AM 5:17 PM
Waning Crescent, 8% visible
Pressure 29.92 in
Visibility -9999.0 miles
Clouds
Dew Point 45 °F
Humidity 43%
Rainfall 0.00 in
Snow Depth Not available.
UV Not available.
Pollen Not available.
Air Quality Not available.
Flu Activity Not available.
METAR HESN 210200Z 34006KT CAVOK 20/07 Q1013 NOSIG

More Conditions Fewer Conditions

Pressure 29.92 in
Visibility -9999.0 miles
Clouds
Dew Point 45 °F
Humidity 43%
Rainfall 0.00 in
Snow Depth Not available.
UV Not available.
Pollen Not available.
Air Quality Not available.
Flu Activity Not available.
METAR HESN 210200Z 34006KT CAVOK 20/07 Q1013 NOSIG

More Conditions Fewer Conditions

10-Day Weather Forecast

Almanac

Astronomy

Oct. 21, 2014 Rise Set
Actual Time 5:48 AM EET 5:17 PM EET
Civil Twilight 5:26 AM EET 5:40 PM EET
Nautical Twilight 4:59 AM EET 6:07 PM EET
Astronomical Twilight 4:33 AM EET 6:33 PM EET
Moon 3:30 AM EET 3:47 PM EET
Length of Visible Light 12h 14m
Length of Day
11h 28m
Tomorrow will be 1m 19s shorter.
Waning Crescent, 8% of the Moon is Illuminated
Oct 20
Waning Crescent
Oct 23
New
Oct 30
First Quarter
Nov 6
Full
Nov 14
Last Quarter

Yesterday's Extremes

Country Highs Country Lows

Community

WunderPhotos

Upload Photos

1,763,575 photos uploaded!

Nearby

Snow Depth

Not available.

Earthquake Activity

City Distance Mag. Time & Date
No recent earthquake activity has been reported nearby.
Minimum magnitude displayed is 2.5.

Coastal Water Temperatures

Place Temperature
No Stations Reporting

Nearby Weather Stations